Terminal Aerodrome Forecast
Issued by NWS

Home | Current Version | Previous Version | Graphics & Text | Print | Product List | Glossary On
Versions: 1 2 3 4 5 6 7 8 9 10 11 12 13 14 15 16 17 18 19 20 21 22 23 24 25 26 27 28 29 30 31 32 33 34
000
FTUS43 KGRB 202200 AAB
TAFRHI
TAF AMD
KRHI 202248Z 2023/2118 34007KT P6SM SCT025 BKN050
      TEMPO 2023/2103 5SM -RA BR BKN025
     FM210300 35004KT P6SM BKN035
     FM211400 05004KT P6SM SCT035=

USA.gov is the U.S. government's official web portal to all federal, state and local government web resources and services.